Target — 9HA2149 — position and weather

sailwx.info

Track history (hours):
 
Tides and Currents Weather Stations Pressure Air Temp Water Temp Dewpoint Dewpoint Depression Visibility Wind Speed Wind Dir Waves Ship Positions

Target

Last reported at 2014-Aug-19 23:15 UTC. Time now 2014-Aug-20 12:43 UTC.
Position N 54°30' E 011°32'.

Length 250 m; draft 15 m.

Type: Tanker. MMSI: 248057000.

Date/timePositionNaut miles runAvg speedWind from/ knotsBaromVisibWave heightAir tempDewpointWater temp
2014-Aug-19 23:15N 54°30' E 011°32'9 9.1
2014-Aug-19 22:15N 54°26' E 011°47'7 9.7
2014-Aug-19 21:33N 54°26' E 011°58'9 9.1
2014-Aug-19 20:33N 54°29' E 012°13'1010.3
2014-Aug-19 19:33N 54°38' E 012°22'1110.7
2014-Aug-19 18:32N 54°44' E 012°38'1110.8
2014-Aug-19 17:33N 54°49' E 012°54'1111.0
2014-Aug-19 16:34N 54°53' E 013°12'1110.7
2014-Aug-19 15:33N 54°56' E 013°29'3110.1
2014-Aug-19 12:29N 55°10' E 014°18'9 9.8
2014-Aug-19 11:34N 55°14' E 014°32'10 9.7
2014-Aug-19 10:34N 55°19' E 014°46'7 6.8
2014-Aug-19 09:34N 55°23' E 014°57'1010.4
2014-Aug-19 08:34N 55°33' E 015°02'1010.1
2014-Aug-19 07:33N 55°38' E 015°17'359 9.7
2014-Aug-17 18:32N 59°40' E 023°33'1111.6
2014-Aug-17 17:33N 59°43' E 023°55'8011.5
2014-Aug-17 10:33N 60°01' E 026°31'1211.4
2014-Aug-17 09:32N 59°60' E 026°54'  
2014-Aug-12 14:07N 60°02' E 027°16'812.8
2014-Aug-12 13:28N 59°58' E 027°00'1213.3
2014-Aug-12 12:33N 59°59' E 026°36'8113.1
2014-Aug-12 06:22N 59°39' E 023°60'1113.1
2014-Aug-12 05:33N 59°35' E 023°40'239 8.4
2014-Aug-11 01:15N 55°58' E 020°32'0 0.4
2014-Aug-11 00:33N 55°58' E 020°33'1 0.5
2014-Aug-10 21:21N 55°59' E 020°35'  
Track history (hours):
 
Tides and Currents Weather Stations Pressure Air Temp Water Temp Dewpoint Dewpoint Depression Visibility Wind Speed Wind Dir Waves Ship Positions

Target

Last reported at 2014-Aug-19 23:15 UTC. Time now 2014-Aug-20 12:43 UTC.
Position N 54°30' E 011°32'.

Length 250 m; draft 15 m.

Type: Tanker. MMSI: 248057000.

Date/timePositionNaut miles runAvg speedWind from/ knotsBaromVisibWave heightAir tempDewpointWater temp
2014-Aug-19 23:15N 54°30' E 011°32'9 9.1
2014-Aug-19 22:15N 54°26' E 011°47'7 9.7
2014-Aug-19 21:33N 54°26' E 011°58'9 9.1
2014-Aug-19 20:33N 54°29' E 012°13'1010.3
2014-Aug-19 19:33N 54°38' E 012°22'1110.7
2014-Aug-19 18:32N 54°44' E 012°38'1110.8
2014-Aug-19 17:33N 54°49' E 012°54'1111.0
2014-Aug-19 16:34N 54°53' E 013°12'1110.7
2014-Aug-19 15:33N 54°56' E 013°29'3110.1
2014-Aug-19 12:29N 55°10' E 014°18'9 9.8
2014-Aug-19 11:34N 55°14' E 014°32'10 9.7
2014-Aug-19 10:34N 55°19' E 014°46'7 6.8
2014-Aug-19 09:34N 55°23' E 014°57'1010.4
2014-Aug-19 08:34N 55°33' E 015°02'1010.1
2014-Aug-19 07:33N 55°38' E 015°17'359 9.7
2014-Aug-17 18:32N 59°40' E 023°33'1111.6
2014-Aug-17 17:33N 59°43' E 023°55'8011.5
2014-Aug-17 10:33N 60°01' E 026°31'1211.4
2014-Aug-17 09:32N 59°60' E 026°54'  
2014-Aug-12 14:07N 60°02' E 027°16'812.8
2014-Aug-12 13:28N 59°58' E 027°00'1213.3
2014-Aug-12 12:33N 59°59' E 026°36'8113.1
2014-Aug-12 06:22N 59°39' E 023°60'1113.1
2014-Aug-12 05:33N 59°35' E 023°40'239 8.4
2014-Aug-11 01:15N 55°58' E 020°32'0 0.4
2014-Aug-11 00:33N 55°58' E 020°33'1 0.5
2014-Aug-10 21:21N 55°59' E 020°35'  

Dump ship's entire track history